createdAt,value
2017-06-11T00:00:36.783Z,0
2017-06-11T00:01:36.774Z,0
2017-06-11T00:02:36.759Z,0
2017-06-11T00:03:36.743Z,0
2017-06-11T00:04:36.732Z,0
2017-06-11T00:05:36.416Z,0
2017-06-11T00:06:36.704Z,0
2017-06-11T00:07:36.690Z,0
2017-06-11T00:08:36.678Z,0
2017-06-11T00:09:36.664Z,0
2017-06-11T00:10:36.352Z,0
2017-06-11T00:11:36.338Z,0
2017-06-11T00:12:36.325Z,0
2017-06-11T00:13:36.618Z,0
2017-06-11T00:14:36.298Z,0
2017-06-11T00:15:36.286Z,0
2017-06-11T00:16:36.581Z,0
2017-06-11T00:17:36.562Z,0
2017-06-11T00:18:36.545Z,0
2017-06-11T00:19:36.238Z,0
2017-06-11T00:20:36.742Z,0
2017-06-11T00:21:36.212Z,0
2017-06-11T00:22:36.501Z,0
2017-06-11T00:23:36.189Z,0
2017-06-11T00:24:36.172Z,0
2017-06-11T00:25:36.463Z,0
2017-06-11T00:26:36.449Z,0
2017-06-11T00:27:36.131Z,0
2017-06-11T00:28:36.424Z,0
2017-06-11T00:29:36.111Z,0
2017-06-11T00:30:36.094Z,0
2017-06-11T00:31:36.081Z,0
2017-06-11T00:32:36.067Z,0
2017-06-11T00:33:36.358Z,0
2017-06-11T00:34:36.347Z,0
2017-06-11T00:35:36.330Z,0
2017-06-11T00:36:36.319Z,0
2017-06-11T00:37:36.306Z,0
2017-06-11T00:38:36.293Z,0
2017-06-11T00:39:36.283Z,0
2017-06-11T00:40:36.271Z,0
2017-06-11T00:41:36.259Z,0
2017-06-11T00:42:36.245Z,0
2017-06-11T00:43:36.233Z,0
2017-06-11T00:44:36.216Z,0
2017-06-11T00:45:36.231Z,0
2017-06-11T00:46:35.890Z,0
2017-06-11T00:47:36.175Z,0
2017-06-11T00:48:36.171Z,0
2017-06-11T00:49:36.153Z,0
2017-06-11T00:50:36.141Z,0
2017-06-11T00:51:35.717Z,0
2017-06-11T00:52:36.112Z,0
2017-06-11T00:53:36.108Z,0
2017-06-11T00:54:36.292Z,0
2017-06-11T00:55:36.077Z,0
2017-06-11T00:56:36.060Z,0
2017-06-11T00:57:36.062Z,0
2017-06-11T00:58:36.039Z,0
2017-06-11T00:59:36.025Z,0
2017-06-11T01:00:35.713Z,0
2017-06-11T01:01:36.205Z,0
2017-06-11T01:02:36.028Z,0
2017-06-11T01:03:35.976Z,0
2017-06-11T01:04:35.963Z,0
2017-06-11T01:05:35.947Z,0
2017-06-11T01:06:35.929Z,0
2017-06-11T01:07:35.928Z,0
2017-06-11T01:08:35.904Z,0
2017-06-11T01:09:35.895Z,0
2017-06-11T01:10:35.881Z,0
2017-06-11T01:11:35.868Z,0
2017-06-11T01:12:35.858Z,0
2017-06-11T01:13:35.838Z,0
2017-06-11T01:14:35.834Z,0
2017-06-11T01:15:35.819Z,0
2017-06-11T01:16:35.827Z,0
2017-06-11T01:17:35.791Z,0
2017-06-11T01:18:35.785Z,0
2017-06-11T01:19:35.760Z,0
2017-06-11T01:20:35.753Z,0
2017-06-11T01:21:35.738Z,0
2017-06-11T01:22:35.727Z,0
2017-06-11T01:23:35.709Z,0
2017-06-11T01:24:35.695Z,0
2017-06-11T01:25:35.383Z,0
2017-06-11T01:26:36.876Z,0
2017-06-11T01:27:35.657Z,0
2017-06-11T01:28:35.648Z,0
2017-06-11T01:29:35.629Z,0
2017-06-11T01:30:35.633Z,0
2017-06-11T01:31:35.601Z,0
2017-06-11T01:32:35.291Z,0
2017-06-11T01:33:35.273Z,0
2017-06-11T01:34:35.566Z,0
2017-06-11T01:35:35.548Z,0
2017-06-11T01:36:35.537Z,0
2017-06-11T01:37:35.533Z,0
2017-06-11T01:38:35.515Z,0
2017-06-11T01:39:35.500Z,0
2017-06-11T01:40:35.493Z,0
2017-06-11T01:41:35.473Z,0
2017-06-11T01:42:35.463Z,0
2017-06-11T01:43:35.454Z,0
2017-06-11T01:44:35.434Z,0
2017-06-11T01:45:35.423Z,0
2017-06-11T01:46:35.411Z,0
2017-06-11T01:47:35.394Z,0
2017-06-11T01:48:35.386Z,0
2017-06-11T01:49:35.368Z,0
2017-06-11T01:50:35.358Z,0
2017-06-11T01:51:35.348Z,0
2017-06-11T01:52:35.367Z,0
2017-06-11T01:53:35.321Z,0
2017-06-11T01:54:35.002Z,0
2017-06-11T01:55:35.296Z,0
2017-06-11T01:56:35.281Z,0
2017-06-11T01:57:35.272Z,0
2017-06-11T01:58:35.256Z,0
2017-06-11T01:59:34.945Z,0
2017-06-11T02:00:35.231Z,0
2017-06-11T02:01:35.223Z,0
2017-06-11T02:02:35.212Z,0
2017-06-11T02:03:35.194Z,0
2017-06-11T02:04:34.875Z,0
2017-06-11T02:05:35.169Z,0
2017-06-11T02:06:34.548Z,0
2017-06-11T02:07:35.149Z,0
2017-06-11T02:08:34.526Z,0
2017-06-11T02:09:34.816Z,0
2017-06-11T02:10:35.099Z,0
2017-06-11T02:11:35.088Z,0
2017-06-11T02:12:35.078Z,0
2017-06-11T02:13:35.065Z,0
2017-06-11T02:14:34.745Z,0
2017-06-11T02:15:35.034Z,0
2017-06-11T02:16:35.029Z,0
2017-06-11T02:17:35.020Z,0
2017-06-11T02:18:35.000Z,0
2017-06-11T02:19:34.988Z,0
2017-06-11T02:20:34.672Z,0
2017-06-11T02:21:34.965Z,0
2017-06-11T02:22:34.951Z,0
2017-06-11T02:23:34.941Z,0
2017-06-11T02:24:34.926Z,0
2017-06-11T02:25:34.951Z,0
2017-06-11T02:26:34.902Z,0
2017-06-11T02:27:34.886Z,0
2017-06-11T02:28:34.879Z,0
2017-06-11T02:29:34.557Z,0
2017-06-11T02:30:34.246Z,0
2017-06-11T02:31:34.536Z,0
2017-06-11T02:32:34.528Z,0
2017-06-11T02:33:34.841Z,0
2017-06-11T02:34:34.823Z,0
2017-06-11T02:35:34.789Z,4
2017-06-11T02:36:34.777Z,4
2017-06-11T02:37:34.766Z,0
2017-06-11T02:38:34.753Z,0
2017-06-11T02:39:34.735Z,4
2017-06-11T02:40:34.724Z,4
2017-06-11T02:41:34.708Z,4
2017-06-11T02:42:34.697Z,4
2017-06-11T02:43:34.690Z,8
2017-06-11T02:44:34.676Z,8
2017-06-11T02:45:34.659Z,8
2017-06-11T02:46:34.355Z,8
2017-06-11T02:47:34.638Z,8
2017-06-11T02:48:34.625Z,12
2017-06-11T02:49:34.618Z,16
2017-06-11T02:50:34.607Z,16
2017-06-11T02:51:34.585Z,20
2017-06-11T02:52:34.576Z,24
2017-06-11T02:53:34.556Z,24
2017-06-11T02:54:34.549Z,32
2017-06-11T02:55:34.536Z,36
2017-06-11T02:56:34.527Z,44
2017-06-11T02:57:34.513Z,52
2017-06-11T02:58:34.496Z,60
2017-06-11T02:59:34.484Z,68
2017-06-11T03:00:34.476Z,80
2017-06-11T03:01:34.460Z,92
2017-06-11T03:02:34.452Z,104
2017-06-11T03:03:34.436Z,116
2017-06-11T03:04:34.426Z,132
2017-06-11T03:05:34.411Z,148
2017-06-11T03:06:34.404Z,168
2017-06-11T03:07:34.392Z,192
2017-06-11T03:08:34.378Z,212
2017-06-11T03:09:34.364Z,236
2017-06-11T03:10:34.351Z,264
2017-06-11T03:11:34.342Z,292
2017-06-11T03:12:34.333Z,324
2017-06-11T03:13:34.316Z,360
2017-06-11T03:14:34.006Z,396
2017-06-11T03:15:34.292Z,436
2017-06-11T03:16:33.982Z,468
2017-06-11T03:17:34.274Z,512
2017-06-11T03:18:34.263Z,556
2017-06-11T03:19:34.250Z,600
2017-06-11T03:20:34.233Z,648
2017-06-11T03:21:34.221Z,692
2017-06-11T03:22:34.211Z,744
2017-06-11T03:23:34.212Z,796
2017-06-11T03:24:34.192Z,848
2017-06-11T03:25:34.182Z,896
2017-06-11T03:26:34.168Z,952
2017-06-11T03:27:34.164Z,1008
2017-06-11T03:28:34.149Z,1060
2017-06-11T03:29:34.139Z,1116
2017-06-11T03:30:34.122Z,1172
2017-06-11T03:31:33.807Z,1228
2017-06-11T03:32:34.103Z,1284
2017-06-11T03:33:33.484Z,1340
2017-06-11T03:34:33.780Z,1396
2017-06-11T03:35:33.773Z,1452
2017-06-11T03:36:34.055Z,1508
2017-06-11T03:37:34.051Z,1564
2017-06-11T03:38:34.037Z,1616
2017-06-11T03:39:34.024Z,1672
2017-06-11T03:40:34.007Z,1728
2017-06-11T03:41:33.693Z,1784
2017-06-11T03:42:33.986Z,1836
2017-06-11T03:43:33.978Z,1888
2017-06-11T03:44:33.966Z,1940
2017-06-11T03:45:33.950Z,1992
2017-06-11T03:46:33.945Z,2044
2017-06-11T03:47:33.930Z,2096
2017-06-11T03:48:33.916Z,2144
2017-06-11T03:49:33.939Z,2192
2017-06-11T03:50:33.888Z,2244
2017-06-11T03:51:33.884Z,2292
2017-06-11T03:52:33.873Z,2344
2017-06-11T03:53:33.864Z,2392
2017-06-11T03:54:33.552Z,2436
2017-06-11T03:55:33.843Z,2484
2017-06-11T03:56:33.828Z,2528
2017-06-11T03:57:33.815Z,2572
2017-06-11T03:58:33.810Z,2616
2017-06-11T03:59:33.503Z,2660
2017-06-11T04:00:33.481Z,2700
2017-06-11T04:01:33.472Z,2744
2017-06-11T04:02:33.761Z,2784
2017-06-11T04:03:33.441Z,2824
2017-06-11T04:04:33.736Z,2860
2017-06-11T04:05:33.726Z,2896
2017-06-11T04:06:33.743Z,2932
2017-06-11T04:07:33.701Z,2972
2017-06-11T04:08:33.393Z,3008
2017-06-11T04:09:33.689Z,3044
2017-06-11T04:10:33.373Z,3080
2017-06-11T04:11:33.658Z,3116
2017-06-11T04:12:33.648Z,3148
2017-06-11T04:13:33.639Z,3184
2017-06-11T04:14:33.628Z,3216
2017-06-11T04:15:33.618Z,3252
2017-06-11T04:16:33.607Z,3284
2017-06-11T04:17:33.599Z,3316
2017-06-11T04:18:33.590Z,3348
2017-06-11T04:19:33.271Z,3380
2017-06-11T04:20:33.567Z,3408
2017-06-11T04:21:33.553Z,3440
2017-06-11T04:22:33.537Z,3472
2017-06-11T04:23:33.539Z,3504
2017-06-11T04:24:33.528Z,3532
2017-06-11T04:25:33.521Z,3560
2017-06-11T04:26:33.503Z,3588
2017-06-11T04:27:33.496Z,3616
2017-06-11T04:28:33.488Z,3644
2017-06-11T04:29:33.174Z,3676
2017-06-11T04:30:33.463Z,3704
2017-06-11T04:31:33.454Z,3732
2017-06-11T04:32:33.446Z,3756
2017-06-11T04:33:33.427Z,3784
2017-06-11T04:34:33.427Z,3808
2017-06-11T04:35:33.415Z,3828
2017-06-11T04:36:33.399Z,5580
2017-06-11T04:37:33.095Z,14328
2017-06-11T04:38:33.379Z,20320
2017-06-11T04:39:33.371Z,19520
2017-06-11T04:40:33.366Z,18656
2017-06-11T04:41:33.350Z,16160
2017-06-11T04:42:33.040Z,13128
2017-06-11T04:43:33.331Z,13768
2017-06-11T04:44:33.014Z,17952
2017-06-11T04:45:33.012Z,23520
2017-06-11T04:46:33.306Z,26016
2017-06-11T04:47:33.295Z,23584
2017-06-11T04:48:33.283Z,20096
2017-06-11T04:49:33.269Z,20064
2017-06-11T04:50:33.261Z,22176
2017-06-11T04:51:33.258Z,23904
2017-06-11T04:52:33.243Z,22176
2017-06-11T04:53:33.241Z,21568
2017-06-11T04:54:33.253Z,23968
2017-06-11T04:55:33.219Z,24000
2017-06-11T04:56:33.211Z,23680
2017-06-11T04:57:32.898Z,24512
2017-06-11T04:58:33.190Z,25184
2017-06-11T04:59:33.187Z,26880
2017-06-11T05:00:33.179Z,26848
2017-06-11T05:01:33.169Z,23616
2017-06-11T05:02:33.156Z,20640
2017-06-11T05:03:33.151Z,22880
2017-06-11T05:04:33.149Z,24224
2017-06-11T05:05:32.834Z,24288
2017-06-11T05:06:33.127Z,26752
2017-06-11T05:07:33.113Z,27712
2017-06-11T05:08:33.109Z,28064
2017-06-11T05:09:33.106Z,28704
2017-06-11T05:10:33.096Z,27840
2017-06-11T05:11:33.089Z,27616
2017-06-11T05:12:33.078Z,26592
2017-06-11T05:13:33.068Z,28896
2017-06-11T05:14:33.063Z,27936
2017-06-11T05:15:33.055Z,22240
2017-06-11T05:16:33.047Z,22144
2017-06-11T05:17:33.038Z,25888
2017-06-11T05:18:33.027Z,27488
2017-06-11T05:19:33.029Z,32960
2017-06-11T05:20:33.022Z,32960
2017-06-11T05:21:33.015Z,32448
2017-06-11T05:22:33.008Z,32352
2017-06-11T05:23:33.000Z,32800
2017-06-11T05:24:32.989Z,38144
2017-06-11T05:25:32.984Z,41728
2017-06-11T05:26:32.977Z,41696
2017-06-11T05:27:32.976Z,37664
2017-06-11T05:28:32.972Z,33600
2017-06-11T05:29:32.965Z,35616
2017-06-11T05:30:32.653Z,36128
2017-06-11T05:31:32.943Z,33952
2017-06-11T05:32:32.937Z,32864
2017-06-11T05:33:32.936Z,36000
2017-06-11T05:34:32.329Z,39552
2017-06-11T05:35:32.923Z,38528
2017-06-11T05:36:32.920Z,43424
2017-06-11T05:37:32.919Z,44128
2017-06-11T05:38:32.907Z,39360
2017-06-11T05:39:32.906Z,37216
2017-06-11T05:40:32.900Z,30656
2017-06-11T05:41:32.891Z,30240
2017-06-11T05:42:32.885Z,34432
2017-06-11T05:43:32.578Z,36256
2017-06-11T05:44:32.873Z,36000
2017-06-11T05:45:32.870Z,37600
2017-06-11T05:46:32.563Z,36640
2017-06-11T05:47:32.859Z,36928
2017-06-11T05:48:32.852Z,43392
2017-06-11T05:49:32.846Z,40576
2017-06-11T05:50:32.838Z,35392
2017-06-11T05:51:32.833Z,39136
2017-06-11T05:52:32.827Z,43776
2017-06-11T05:53:32.524Z,42432
2017-06-11T05:54:32.520Z,45632
2017-06-11T05:55:32.817Z,41088
2017-06-11T05:56:32.812Z,40800
2017-06-11T05:57:32.801Z,47104
2017-06-11T05:58:32.800Z,49888
2017-06-11T05:59:32.799Z,47296
2017-06-11T06:00:32.791Z,43456
2017-06-11T06:01:32.784Z,44448
2017-06-11T06:02:32.787Z,49600
2017-06-11T06:03:32.777Z,48000
2017-06-11T06:04:32.769Z,47712
2017-06-11T06:05:32.769Z,44512
2017-06-11T06:06:32.762Z,42304
2017-06-11T06:07:32.751Z,41792
2017-06-11T06:08:32.748Z,41856
2017-06-11T06:09:32.741Z,44416
2017-06-11T06:10:32.795Z,44224
2017-06-11T06:11:32.731Z,43936
2017-06-11T06:12:32.463Z,43072
2017-06-11T06:13:32.727Z,47424
2017-06-11T06:14:32.716Z,51392
2017-06-11T06:15:32.713Z,49920
2017-06-11T06:16:32.711Z,45504
2017-06-11T06:17:32.703Z,46592
2017-06-11T06:18:32.701Z,46912
2017-06-11T06:19:32.697Z,45536
2017-06-11T06:20:32.692Z,50400
2017-06-11T06:21:32.683Z,60160
2017-06-11T06:22:32.680Z,59424
2017-06-11T06:23:32.681Z,52352
2017-06-11T06:24:32.676Z,51552
2017-06-11T06:25:32.365Z,50144
2017-06-11T06:26:32.361Z,56160
2017-06-11T06:27:32.660Z,60032
2017-06-11T06:28:32.652Z,57024
2017-06-11T06:29:32.650Z,60672
2017-06-11T06:30:32.348Z,58016
2017-06-11T06:31:32.338Z,56448
2017-06-11T06:32:32.336Z,50976
2017-06-11T06:33:32.637Z,54656
2017-06-11T06:34:32.331Z,64288
2017-06-11T06:35:32.323Z,66144
2017-06-11T06:36:32.623Z,68608
2017-06-11T06:37:32.314Z,65024
2017-06-11T06:38:32.613Z,80288
2017-06-11T06:39:32.609Z,76512
2017-06-11T06:40:32.601Z,44128
2017-06-11T06:41:32.295Z,28608
2017-06-11T06:42:32.290Z,27904
2017-06-11T06:43:32.594Z,29088
2017-06-11T06:44:32.589Z,30976
2017-06-11T06:45:32.585Z,31968
2017-06-11T06:46:32.582Z,36096
2017-06-11T06:47:32.275Z,48352
2017-06-11T06:48:32.276Z,56224
2017-06-11T06:49:32.574Z,59040
2017-06-11T06:50:32.562Z,80384
2017-06-11T06:51:32.563Z,81344
2017-06-11T06:52:32.255Z,71968
2017-06-11T06:53:32.556Z,69856
2017-06-11T06:54:32.549Z,69536
2017-06-11T06:55:32.541Z,71200
2017-06-11T06:56:32.538Z,70016
2017-06-11T06:57:32.537Z,64512
2017-06-11T06:58:32.532Z,72928
2017-06-11T06:59:32.561Z,79296
2017-06-11T07:00:32.526Z,67616
2017-06-11T07:01:32.227Z,83456
2017-06-11T07:02:32.523Z,88768
2017-06-11T07:03:32.527Z,74400
2017-06-11T07:04:32.514Z,68128
2017-06-11T07:05:32.516Z,70944
2017-06-11T07:06:32.511Z,76544
2017-06-11T07:07:32.205Z,89120
2017-06-11T07:08:32.506Z,88992
2017-06-11T07:09:32.499Z,80928
2017-06-11T07:10:32.501Z,77312
2017-06-11T07:11:32.542Z,80000
2017-06-11T07:12:32.490Z,78240
2017-06-11T07:13:32.191Z,73568
2017-06-11T07:14:32.490Z,76192
2017-06-11T07:15:32.482Z,81728
2017-06-11T07:16:32.177Z,81664
2017-06-11T07:17:32.480Z,87136
2017-06-11T07:18:32.173Z,97088
2017-06-11T07:19:32.468Z,92608
2017-06-11T07:20:32.166Z,81856
2017-06-11T07:21:32.465Z,80768
2017-06-11T07:22:32.157Z,93856
2017-06-11T07:23:32.462Z,104864
2017-06-11T07:24:32.454Z,74048
2017-06-11T07:25:32.450Z,40192
2017-06-11T07:26:32.146Z,45536
2017-06-11T07:27:32.145Z,77216
2017-06-11T07:28:32.474Z,104896
2017-06-11T07:29:32.437Z,115424
2017-06-11T07:30:32.437Z,103104
2017-06-11T07:31:32.130Z,77728
2017-06-11T07:32:32.425Z,73088
2017-06-11T07:33:32.441Z,79296
2017-06-11T07:34:32.426Z,83520
2017-06-11T07:35:32.424Z,92192
2017-06-11T07:36:32.121Z,96320
2017-06-11T07:37:32.412Z,88192
2017-06-11T07:38:32.112Z,85568
2017-06-11T07:39:32.413Z,84544
2017-06-11T07:40:32.412Z,77120
2017-06-11T07:41:32.431Z,85472
2017-06-11T07:42:32.405Z,103552
2017-06-11T07:43:32.403Z,102528
2017-06-11T07:44:32.411Z,91488
2017-06-11T07:45:32.398Z,88384
2017-06-11T07:46:32.402Z,92320
2017-06-11T07:47:32.394Z,94656
2017-06-11T07:48:32.398Z,104512
2017-06-11T07:49:32.391Z,100256
2017-06-11T07:50:32.388Z,84608
2017-06-11T07:51:32.387Z,78208
2017-06-11T07:52:32.385Z,76704
2017-06-11T07:53:32.382Z,75616
2017-06-11T07:54:32.383Z,75456
2017-06-11T07:55:32.374Z,84416
2017-06-11T07:56:32.073Z,89504
2017-06-11T07:57:32.369Z,84352
2017-06-11T07:58:32.367Z,79712
2017-06-11T07:59:32.066Z,88992
2017-06-11T08:00:31.765Z,102624
2017-06-11T08:01:32.364Z,106880
2017-06-11T08:02:32.363Z,108608
2017-06-11T08:03:32.362Z,117664
2017-06-11T08:04:32.356Z,116800
2017-06-11T08:05:32.357Z,109152
2017-06-11T08:06:32.351Z,102176
2017-06-11T08:07:32.345Z,98368
2017-06-11T08:08:32.349Z,93696
2017-06-11T08:09:32.343Z,86368
2017-06-11T08:10:32.344Z,86496
2017-06-11T08:11:32.334Z,90240
2017-06-11T08:12:32.345Z,96320
2017-06-11T08:13:32.335Z,105696
2017-06-11T08:14:32.331Z,117376
2017-06-11T08:15:32.330Z,106464
2017-06-11T08:16:32.325Z,93856
2017-06-11T08:17:32.325Z,96896
2017-06-11T08:18:32.326Z,96928
2017-06-11T08:19:32.325Z,80512
2017-06-11T08:20:32.317Z,75840
2017-06-11T08:21:32.015Z,88096
2017-06-11T08:22:32.324Z,99488
2017-06-11T08:23:32.314Z,97760
2017-06-11T08:24:32.010Z,92736
2017-06-11T08:25:32.007Z,93856
2017-06-11T08:26:32.310Z,103264
2017-06-11T08:27:32.299Z,106240
2017-06-11T08:28:32.305Z,108192
2017-06-11T08:29:32.303Z,114208
2017-06-11T08:30:32.300Z,112768
2017-06-11T08:31:32.296Z,106304
2017-06-11T08:32:32.304Z,96320
2017-06-11T08:33:32.295Z,96192
2017-06-11T08:34:32.292Z,105088
2017-06-11T08:35:32.291Z,104960
2017-06-11T08:36:31.985Z,96032
2017-06-11T08:37:32.290Z,104768
2017-06-11T08:38:32.287Z,110528
2017-06-11T08:39:32.289Z,111072
2017-06-11T08:40:32.277Z,110432
2017-06-11T08:41:31.978Z,95840
2017-06-11T08:42:32.272Z,101024
2017-06-11T08:43:32.268Z,100896
2017-06-11T08:44:32.271Z,89504
2017-06-11T08:45:32.265Z,90848
2017-06-11T08:46:32.265Z,105024
2017-06-11T08:47:32.268Z,115680
2017-06-11T08:48:32.262Z,124800
2017-06-11T08:49:31.962Z,131392
2017-06-11T08:50:32.258Z,117664
2017-06-11T08:51:32.260Z,89568
2017-06-11T08:52:32.259Z,85984
2017-06-11T08:53:32.252Z,86560
2017-06-11T08:54:32.249Z,95936
2017-06-11T08:55:32.251Z,110848
2017-06-11T08:56:31.951Z,127456
2017-06-11T08:57:31.945Z,128960
2017-06-11T08:58:32.242Z,139936
2017-06-11T08:59:32.246Z,123296
2017-06-11T09:00:32.245Z,104224
2017-06-11T09:01:32.241Z,114624
2017-06-11T09:02:32.238Z,112000
2017-06-11T09:03:32.241Z,104320
2017-06-11T09:04:32.235Z,99296
2017-06-11T09:05:32.253Z,99872
2017-06-11T09:06:31.928Z,111008
2017-06-11T09:07:32.232Z,107296
2017-06-11T09:08:32.225Z,100960
2017-06-11T09:09:32.229Z,92768
2017-06-11T09:10:32.238Z,95232
2017-06-11T09:11:32.222Z,93824
2017-06-11T09:12:32.225Z,103072
2017-06-11T09:13:32.219Z,106912
2017-06-11T09:14:32.224Z,109600
2017-06-11T09:15:32.219Z,116832
2017-06-11T09:16:32.221Z,100480
2017-06-11T09:17:32.219Z,94080
2017-06-11T09:18:32.217Z,96832
2017-06-11T09:19:32.219Z,100736
2017-06-11T09:20:32.216Z,93984
2017-06-11T09:21:32.244Z,102688
2017-06-11T09:22:32.214Z,105504
2017-06-11T09:23:32.217Z,105184
2017-06-11T09:24:32.212Z,93792
2017-06-11T09:25:32.211Z,80320
2017-06-11T09:26:32.210Z,80608
2017-06-11T09:27:32.207Z,90624
2017-06-11T09:28:32.211Z,97632
2017-06-11T09:29:32.207Z,111136
2017-06-11T09:30:32.208Z,136128
2017-06-11T09:31:32.212Z,142144
2017-06-11T09:32:32.212Z,153312
2017-06-11T09:33:32.210Z,159136
2017-06-11T09:34:32.207Z,141024
2017-06-11T09:35:32.205Z,137344
2017-06-11T09:36:32.212Z,129920
2017-06-11T09:37:32.202Z,127776
2017-06-11T09:38:32.204Z,119616
2017-06-11T09:39:32.203Z,120608
2017-06-11T09:40:32.206Z,114688
2017-06-11T09:41:32.203Z,104544
2017-06-11T09:42:31.906Z,103872
2017-06-11T09:43:31.907Z,100448
2017-06-11T09:44:32.204Z,99968
2017-06-11T09:45:32.203Z,97984
2017-06-11T09:46:32.198Z,96064
2017-06-11T09:47:32.207Z,95456
2017-06-11T09:48:32.198Z,95424
2017-06-11T09:49:32.193Z,96192
2017-06-11T09:50:32.196Z,94976
2017-06-11T09:51:32.195Z,95392
2017-06-11T09:52:32.202Z,95744
2017-06-11T09:53:32.197Z,97440
2017-06-11T09:54:32.208Z,99584
2017-06-11T09:55:32.194Z,99904
2017-06-11T09:56:32.191Z,102976
2017-06-11T09:57:32.194Z,104064
2017-06-11T09:58:32.189Z,105472
2017-06-11T09:59:32.188Z,104576
2017-06-11T10:00:32.181Z,102368
2017-06-11T10:01:31.882Z,101952
2017-06-11T10:02:32.177Z,101280
2017-06-11T10:03:32.184Z,100576
2017-06-11T10:04:32.178Z,98112
2017-06-11T10:05:31.877Z,99296
2017-06-11T10:06:32.181Z,102432
2017-06-11T10:07:32.174Z,107456
2017-06-11T10:08:32.171Z,112480
2017-06-11T10:09:32.185Z,114112
2017-06-11T10:10:32.170Z,116192
2017-06-11T10:11:32.168Z,118784
2017-06-11T10:12:32.173Z,117600
2017-06-11T10:13:32.166Z,117920
2017-06-11T10:14:31.867Z,118496
2017-06-11T10:15:32.162Z,117952
2017-06-11T10:16:32.169Z,117504
2017-06-11T10:17:32.163Z,118176
2017-06-11T10:18:32.154Z,121568
2017-06-11T10:19:32.160Z,125888
2017-06-11T10:20:32.154Z,130080
2017-06-11T10:21:32.180Z,135104
2017-06-11T10:22:31.851Z,141056
2017-06-11T10:23:32.151Z,133472
2017-06-11T10:24:32.148Z,130240
2017-06-11T10:25:32.142Z,120000
2017-06-11T10:26:32.169Z,122432
2017-06-11T10:27:32.142Z,130560
2017-06-11T10:28:32.140Z,132288
2017-06-11T10:29:31.836Z,126720
2017-06-11T10:30:32.136Z,131968
2017-06-11T10:31:32.140Z,134688
2017-06-11T10:32:32.141Z,139008
2017-06-11T10:33:32.138Z,137824
2017-06-11T10:34:32.128Z,133920
2017-06-11T10:35:31.848Z,130592
2017-06-11T10:36:32.127Z,130720
2017-06-11T10:37:32.133Z,132992
2017-06-11T10:38:32.126Z,135200
2017-06-11T10:39:32.124Z,135296
2017-06-11T10:40:32.123Z,129792
2017-06-11T10:41:32.117Z,128000
2017-06-11T10:42:32.121Z,130400
2017-06-11T10:43:32.125Z,127936
2017-06-11T10:44:31.814Z,128800
2017-06-11T10:45:32.117Z,125088
2017-06-11T10:46:32.115Z,127104
2017-06-11T10:47:32.114Z,128512
2017-06-11T10:48:32.112Z,129632
2017-06-11T10:49:32.108Z,129472
2017-06-11T10:50:31.820Z,126496
2017-06-11T10:51:32.110Z,120416
2017-06-11T10:52:32.116Z,115904
2017-06-11T10:53:32.108Z,114848
2017-06-11T10:54:31.803Z,113024
2017-06-11T10:55:32.103Z,116160
2017-06-11T10:56:32.106Z,118816
2017-06-11T10:57:32.098Z,112640
2017-06-11T10:58:32.102Z,112256
2017-06-11T10:59:32.097Z,111456
2017-06-11T11:00:32.097Z,117824
2017-06-11T11:01:32.100Z,116384
2017-06-11T11:02:32.096Z,118624
2017-06-11T11:03:31.821Z,120192
2017-06-11T11:04:31.788Z,117024
2017-06-11T11:05:32.093Z,114560
2017-06-11T11:06:31.791Z,111040
2017-06-11T11:07:31.786Z,111200
2017-06-11T11:08:32.085Z,111232
2017-06-11T11:09:32.089Z,101760
2017-06-11T11:10:32.087Z,109248
2017-06-11T11:11:32.081Z,108128
2017-06-11T11:12:32.085Z,107520
2017-06-11T11:13:32.076Z,112736
2017-06-11T11:14:31.782Z,118208
2017-06-11T11:15:31.770Z,120320
2017-06-11T11:16:32.078Z,125152
2017-06-11T11:17:32.068Z,123424
2017-06-11T11:18:32.077Z,117664
2017-06-11T11:19:32.076Z,111744
2017-06-11T11:20:32.070Z,108000
2017-06-11T11:21:32.072Z,107424
2017-06-11T11:22:32.074Z,109216
2017-06-11T11:23:32.061Z,110144
2017-06-11T11:24:32.067Z,109216
2017-06-11T11:25:32.058Z,106752
2017-06-11T11:26:32.054Z,105440
2017-06-11T11:27:32.056Z,104128
2017-06-11T11:28:32.056Z,105696
2017-06-11T11:29:32.051Z,107200
2017-06-11T11:30:32.056Z,111904
2017-06-11T11:31:31.756Z,105152
2017-06-11T11:32:32.058Z,112384
2017-06-11T11:33:32.044Z,107136
2017-06-11T11:34:32.048Z,112608
2017-06-11T11:35:32.052Z,113696
2017-06-11T11:36:32.044Z,113408
2017-06-11T11:37:32.041Z,114720
2017-06-11T11:38:32.043Z,115040
2017-06-11T11:39:32.046Z,114656
2017-06-11T11:40:32.040Z,112320
2017-06-11T11:41:32.038Z,109120
2017-06-11T11:42:32.038Z,106368
2017-06-11T11:43:32.031Z,109312
2017-06-11T11:44:32.039Z,117760
2017-06-11T11:45:32.037Z,134560
2017-06-11T11:46:32.027Z,145600
2017-06-11T11:47:32.028Z,151136
2017-06-11T11:48:32.027Z,163904
2017-06-11T11:49:32.025Z,172512
2017-06-11T11:50:32.030Z,181056
2017-06-11T11:51:31.722Z,174784
2017-06-11T11:52:32.022Z,159712
2017-06-11T11:53:32.019Z,140064
2017-06-11T11:54:31.717Z,119520
2017-06-11T11:55:32.018Z,104800
2017-06-11T11:56:32.013Z,93344
2017-06-11T11:57:32.011Z,94816
2017-06-11T11:58:31.710Z,101664
2017-06-11T11:59:32.021Z,107680
2017-06-11T12:00:31.712Z,110944
2017-06-11T12:01:31.702Z,116224
2017-06-11T12:02:32.006Z,111296
2017-06-11T12:03:32.002Z,113152
2017-06-11T12:04:32.005Z,118176
2017-06-11T12:05:32.001Z,120896
2017-06-11T12:06:31.698Z,129984
2017-06-11T12:07:31.696Z,132576
2017-06-11T12:08:32.001Z,141600
2017-06-11T12:09:31.996Z,138432
2017-06-11T12:10:31.994Z,135488
2017-06-11T12:11:31.705Z,133504
2017-06-11T12:12:32.018Z,142464
2017-06-11T12:13:32.006Z,148256
2017-06-11T12:14:32.009Z,138528
2017-06-11T12:15:32.004Z,135136
2017-06-11T12:16:31.994Z,125696
2017-06-11T12:17:31.988Z,118400
2017-06-11T12:18:32.029Z,115872
2017-06-11T12:19:31.991Z,115168
2017-06-11T12:20:31.995Z,112960
2017-06-11T12:21:32.000Z,119584
2017-06-11T12:22:32.006Z,121184
2017-06-11T12:23:31.994Z,111552
2017-06-11T12:24:31.991Z,104736
2017-06-11T12:25:31.986Z,97088
2017-06-11T12:26:31.994Z,94336
2017-06-11T12:27:31.685Z,105696
2017-06-11T12:28:31.984Z,115104
2017-06-11T12:29:31.683Z,112480
2017-06-11T12:30:32.006Z,107744
2017-06-11T12:31:31.983Z,104608
2017-06-11T12:32:31.990Z,109280
2017-06-11T12:33:31.994Z,122272
2017-06-11T12:34:31.981Z,128192
2017-06-11T12:35:31.984Z,123936
2017-06-11T12:36:31.983Z,118976
2017-06-11T12:37:31.995Z,120096
2017-06-11T12:38:32.001Z,115968
2017-06-11T12:39:32.000Z,111072
2017-06-11T12:40:31.977Z,111232
2017-06-11T12:41:31.978Z,110400
2017-06-11T12:42:31.972Z,109152
2017-06-11T12:43:31.991Z,111072
2017-06-11T12:44:31.979Z,114976
2017-06-11T12:45:31.967Z,112384
2017-06-11T12:46:31.973Z,108928
2017-06-11T12:47:31.993Z,112224
2017-06-11T12:48:31.975Z,118368
2017-06-11T12:49:31.970Z,115968
2017-06-11T12:50:31.990Z,106016
2017-06-11T12:51:31.990Z,99776
2017-06-11T12:52:31.987Z,105632
2017-06-11T12:53:31.985Z,121248
2017-06-11T12:54:31.670Z,124384
2017-06-11T12:55:31.969Z,117312
2017-06-11T12:56:31.960Z,117056
2017-06-11T12:57:31.664Z,123168
2017-06-11T12:58:31.974Z,125888
2017-06-11T12:59:31.979Z,129920
2017-06-11T13:00:31.976Z,123520
2017-06-11T13:01:31.973Z,109344
2017-06-11T13:02:31.956Z,110816
2017-06-11T13:03:31.975Z,107328
2017-06-11T13:04:31.661Z,104928
2017-06-11T13:05:31.681Z,103744
2017-06-11T13:06:31.656Z,100512
2017-06-11T13:07:31.955Z,100448
2017-06-11T13:08:31.956Z,97152
2017-06-11T13:09:31.680Z,89568
2017-06-11T13:10:31.971Z,88544
2017-06-11T13:11:31.954Z,92640